Time;durP1;ratioP1;P1;durP2;ratioP2;P2;SDS_P1;SDS_P2;PMS_P1;PMS_P2;Temp;Humidity;BMP_temperature;BMP_pressure;BME280_temperature;BME280_humidity;BME280_pressure;Samples;Min_cycle;Max_cycle;Signal;HPM_P1;HPM_P2
2021/08/23 00:00:03;;;;;;;1.65;1.00;;;;;;;;;;6107063;23;19998;-96
2021/08/23 00:02:29;;;;;;;1.30;0.87;;;;;;;;;;6108176;23;20014;-96
2021/08/23 00:04:55;;;;;;;2.88;1.20;;;;;;;;;;6108097;23;19986;-96
2021/08/23 00:07:21;;;;;;;1.58;1.05;;;;;;;;;;6107119;23;20002;-95
2021/08/23 00:09:47;;;;;;;3.97;1.30;;;;;;;;;;6108336;23;20010;-96
2021/08/23 00:12:13;;;;;;;5.70;1.15;;;;;;;;;;6111501;23;20003;-96
2021/08/23 00:14:39;;;;;;;1.95;1.00;;;;;;;;;;6107372;23;20011;-96
2021/08/23 00:17:05;;;;;;;2.17;0.90;;;;;;;;;;6107105;23;20013;-95
2021/08/23 00:19:31;;;;;;;4.15;1.10;;;;;;;;;;6084098;23;19999;-96
2021/08/23 00:22:01;;;;;;;3.58;1.60;;;;;;;;;;6110901;23;20026;-95
2021/08/23 00:24:27;;;;;;;2.40;1.02;;;;;;;;;;6108741;23;20333;-96
2021/08/23 00:26:58;;;;;;;1.73;1.07;;;;;;;;;;6081131;23;20050;-96
2021/08/23 00:29:24;;;;;;;1.83;0.60;;;;;;;;;;6107923;23;20270;-95
2021/08/23 00:31:50;;;;;;;5.18;1.13;;;;;;;;;;6106385;23;20003;-96
2021/08/23 00:34:16;;;;;;;1.88;0.90;;;;;;;;;;6104628;23;20014;-96
2021/08/23 00:36:43;;;;;;;2.72;1.00;;;;;;;;;;6101070;23;20003;-96
2021/08/23 00:39:09;;;;;;;2.80;0.95;;;;;;;;;;6103170;23;20010;-95
2021/08/23 00:41:38;;;;;;;1.50;1.17;;;;;;;;;;6079428;23;20038;-96
2021/08/23 00:44:05;;;;;;;4.15;0.85;;;;;;;;;;6082373;23;20234;-96
2021/08/23 00:46:32;;;;;;;3.22;1.30;;;;;;;;;;6108477;23;20003;-95
2021/08/23 00:48:58;;;;;;;1.23;0.70;;;;;;;;;;6076439;23;20006;-95
2021/08/23 00:51:24;;;;;;;1.20;1.00;;;;;;;;;;6079255;23;20074;-96
2021/08/23 00:53:50;;;;;;;4.50;1.27;;;;;;;;;;6105711;23;20005;-96
2021/08/23 00:56:20;;;;;;;1.65;0.60;;;;;;;;;;6092423;23;20462;-96
2021/08/23 00:58:47;;;;;;;2.90;1.17;;;;;;;;;;6076559;23;20036;-95
2021/08/23 01:01:18;;;;;;;2.07;0.90;;;;;;;;;;6073745;23;20007;-96
2021/08/23 01:03:51;;;;;;;2.75;0.93;;;;;;;;;;6075216;23;20074;-96
2021/08/23 01:06:17;;;;;;;3.72;0.93;;;;;;;;;;6073551;23;20015;-96
2021/08/23 01:08:44;;;;;;;2.40;1.45;;;;;;;;;;6071933;23;20102;-95
2021/08/23 01:11:12;;;;;;;1.02;0.80;;;;;;;;;;6072675;23;19998;-94
2021/08/23 01:13:40;;;;;;;2.20;0.82;;;;;;;;;;6077407;23;20007;-96
2021/08/23 01:16:06;;;;;;;3.53;1.55;;;;;;;;;;6075490;23;20007;-95
2021/08/23 01:18:32;;;;;;;3.92;1.55;;;;;;;;;;6076172;23;20466;-96
2021/08/23 01:21:00;;;;;;;2.95;1.00;;;;;;;;;;6077364;23;20044;-96
2021/08/23 01:23:27;;;;;;;6.90;1.25;;;;;;;;;;6078728;23;20005;-95
2021/08/23 01:25:53;;;;;;;3.47;1.27;;;;;;;;;;6078919;23;20062;-95
2021/08/23 01:28:43;;;;;;;1.52;1.00;;;21.10;58.30;;;;;;6078223;23;20015;-96
2021/08/23 01:31:15;;;;;;;4.90;1.10;;;;;;;;;;6080110;23;20019;-96
2021/08/23 01:33:43;;;;;;;1.48;0.90;;;20.90;58.30;;;;;;6080363;23;20007;-96
2021/08/23 01:36:10;;;;;;;9.77;1.10;;;;;;;;;;6078857;23;20078;-96
2021/08/23 01:38:37;;;;;;;1.85;1.08;;;;;;;;;;6075677;23;20459;-96
2021/08/23 01:41:07;;;;;;;0.95;0.65;;;20.90;58.80;;;;;;6075734;23;20082;-96
2021/08/23 01:43:34;;;;;;;2.97;1.00;;;;;;;;;;6075124;23;20068;-96
2021/08/23 01:46:01;;;;;;;0.73;0.63;;;;;;;;;;6073295;23;20011;-96
2021/08/23 01:48:32;;;;;;;1.67;0.65;;;20.90;59.10;;;;;;6074371;23;20007;-96
2021/08/23 01:50:58;;;;;;;2.33;1.08;;;;;;;;;;6073803;23;20038;-95
2021/08/23 01:53:26;;;;;;;4.35;0.98;;;;;;;;;;6073286;23;20449;-95
2021/08/23 01:55:52;;;;;;;;;;;;;;;;;;6079979;23;20083;-96
2021/08/23 01:58:19;;;;;;;1.90;1.40;;;;;;;;;;6101749;23;20102;-96
2021/08/23 02:00:46;;;;;;;4.63;1.47;;;;;;;;;;6077732;23;20006;-95
2021/08/23 02:03:12;;;;;;;3.38;0.98;;;;;;;;;;6093405;23;20010;-96
2021/08/23 02:05:38;;;;;;;3.10;1.35;;;;;;;;;;6103444;23;20010;-96
2021/08/23 02:08:05;;;;;;;1.77;0.77;;;;;;;;;;6078395;23;20012;-96
2021/08/23 02:10:32;;;;;;;3.40;1.67;;;;;;;;;;6080807;23;20014;-95
2021/08/23 02:12:59;;;;;;;1.73;1.10;;;20.40;82.30;;;;;;6104554;23;20013;-96
2021/08/23 02:15:26;;;;;;;2.88;0.80;;;;;;;;;;6102919;23;20234;-95
2021/08/23 02:17:52;;;;;;;4.82;1.10;;;;;;;;;;6076898;23;19999;-95
2021/08/23 02:20:24;;;;;;;1.85;0.95;;;;;;;;;;6078605;23;20006;-95
2021/08/23 02:22:50;;;;;;;1.52;0.70;;;;;;;;;;6102169;23;20010;-95
2021/08/23 02:25:21;;;;;;;5.85;1.27;;;;;;;;;;6100518;23;20009;-96
2021/08/23 02:27:47;;;;;;;2.00;0.90;;;;;;;;;;6100696;23;20398;-96
2021/08/23 02:30:13;;;;;;;4.78;2.42;;;;;;;;;;6098773;23;20020;-95
2021/08/23 02:32:39;;;;;;;2.08;1.00;;;;;;;;;;6071855;23;20010;-96
2021/08/23 02:35:06;;;;;;;3.33;1.20;;;;;;;;;;6097831;23;20013;-96
2021/08/23 02:37:32;;;;;;;3.95;1.10;;;;;;;;;;6073471;23;20010;-96
2021/08/23 02:39:59;;;;;;;2.97;1.40;;;;;;;;;;6077451;23;20015;-96
2021/08/23 02:42:25;;;;;;;1.98;0.77;;;;;;;;;;6074584;23;20486;-96
2021/08/23 02:44:51;;;;;;;2.30;1.08;;;;;;;;;;6073959;23;20009;-94
2021/08/23 02:47:17;;;;;;;4.25;1.30;;;;;;;;;;6073494;23;20089;-96
2021/08/23 02:49:43;;;;;;;1.17;1.00;;;;;;;;;;6072956;23;21208;-95
2021/08/23 02:52:09;;;;;;;3.25;0.90;;;;;;;;;;6072411;23;20014;-95
2021/08/23 02:54:35;;;;;;;2.78;0.70;;;;;;;;;;6073138;23;20010;-96
2021/08/23 02:57:01;;;;;;;1.52;0.80;;;;;;;;;;6072950;23;20053;-95
2021/08/23 02:59:27;;;;;;;2.58;1.08;;;;;;;;;;6098553;23;20011;-96
2021/08/23 03:01:53;;;;;;;3.75;1.02;;;;;;;;;;6072171;23;20009;-95
2021/08/23 03:04:19;;;;;;;3.85;1.10;;;;;;;;;;6097317;23;20030;-96
2021/08/23 03:06:45;;;;;;;1.55;0.90;;;;;;;;;;6072394;23;20018;-96
2021/08/23 03:09:11;;;;;;;0.98;0.93;;;;;;;;;;6098158;23;20007;-96
2021/08/23 03:11:37;;;;;;;3.20;1.50;;;;;;;;;;6097422;23;20015;-95
2021/08/23 03:14:03;;;;;;;1.92;1.25;;;;;;;;;;6097471;23;20011;-95
2021/08/23 03:16:29;;;;;;;3.78;0.88;;;;;;;;;;6098398;23;20017;-95
2021/08/23 03:18:55;;;;;;;2.22;0.93;;;;;;;;;;6098066;23;20442;-95
2021/08/23 03:21:21;;;;;;;2.60;1.08;;;;;;;;;;6097132;23;20010;-96
2021/08/23 03:23:47;;;;;;;2.08;1.00;;;;;;;;;;6072600;23;20002;-96
2021/08/23 03:26:13;;;;;;;6.30;1.38;;;;;;;;;;6072850;23;20013;-95
2021/08/23 03:28:39;;;;;;;2.58;1.00;;;;;;;;;;6071293;23;20066;-96
2021/08/23 03:31:06;;;;;;;1.83;1.35;;;;;;;;;;6071217;23;20513;-96
2021/08/23 03:33:33;;;;;;;2.93;1.77;;;;;;;;;;6096967;23;20014;-95
2021/08/23 03:35:59;;;;;;;3.22;1.35;;;;;;;;;;6071770;23;20010;-95
2021/08/23 03:38:25;;;;;;;1.13;0.90;;;;;;;;;;6097213;23;20003;-95
2021/08/23 03:40:51;;;;;;;2.25;1.02;;;;;;;;;;6097384;23;20006;-96
2021/08/23 03:43:17;;;;;;;1.48;1.10;;;;;;;;;;6097193;23;20030;-96
2021/08/23 03:45:43;;;;;;;2.25;1.38;;;;;;;;;;6098220;23;20010;-96
2021/08/23 03:48:09;;;;;;;1.52;1.23;;;;;;;;;;6071792;23;20066;-95
2021/08/23 03:50:36;;;;;;;3.80;1.08;;;;;;;;;;6071426;23;20014;-96
2021/08/23 03:53:02;;;;;;;2.45;1.17;;;;;;;;;;6097309;23;20441;-95
2021/08/23 03:55:28;;;;;;;3.80;1.25;;;;;;;;;;6098552;23;20442;-94
2021/08/23 03:57:54;;;;;;;2.20;1.25;;;;;;;;;;6072924;23;20011;-95
2021/08/23 04:00:20;;;;;;;1.65;1.10;;;;;;;;;;6099464;23;20007;-95
2021/08/23 04:02:46;;;;;;;1.67;1.13;;;;;;;;;;6073504;23;20025;-96
2021/08/23 04:05:12;;;;;;;2.55;0.88;;;;;;;;;;6073539;23;20093;-95
2021/08/23 04:07:38;;;;;;;3.15;1.17;;;;;;;;;;6099234;23;20007;-96
2021/08/23 04:10:05;;;;;;;2.00;1.10;;;;;;;;;;6098732;23;20022;-94
2021/08/23 04:12:31;;;;;;;6.03;2.30;;;;;;;;;;6073310;23;20513;-96
2021/08/23 04:14:59;;;;;;;1.33;0.75;;;;;;;;;;6099680;23;20323;-96
2021/08/23 04:17:25;;;;;;;2.28;0.90;;;;;;;;;;6074236;23;20007;-95
2021/08/23 04:19:51;;;;;;;1.58;1.20;;;;;;;;;;6078274;23;20022;-96
2021/08/23 04:22:18;;;;;;;1.17;0.93;;;;;;;;;;6102212;23;20445;-96
2021/08/23 04:24:44;;;;;;;1.77;0.90;;;;;;;;;;6073924;23;20006;-96
2021/08/23 04:27:10;;;;;;;4.47;1.30;;;;;;;;;;6099713;23;20093;-95
2021/08/23 04:29:36;;;;;;;1.42;0.85;;;;;;;;;;6099270;23;20048;-96
2021/08/23 04:32:02;;;;;;;5.75;1.10;;;;;;;;;;6099973;23;20018;-96
2021/08/23 04:34:29;;;;;;;1.75;1.15;;;;;;;;;;6099562;23;20022;-96
2021/08/23 04:36:55;;;;;;;4.35;0.95;;;;;;;;;;6099553;23;20002;-94
2021/08/23 04:39:21;;;;;;;2.47;1.08;;;;;;;;;;6099530;23;20026;-95
2021/08/23 04:41:47;;;;;;;3.28;1.08;;;;;;;;;;6073244;23;20013;-96
2021/08/23 04:44:13;;;;;;;2.65;1.02;;;;;;;;;;6073147;23;19999;-95
2021/08/23 04:46:39;;;;;;;4.28;1.48;;;;;;;;;;6098362;23;20476;-94
2021/08/23 04:49:05;;;;;;;1.95;0.98;;;;;;;;;;6098328;23;20430;-95
2021/08/23 04:51:31;;;;;;;1.33;1.13;;;;;;;;;;6073789;23;20106;-95
2021/08/23 04:53:57;;;;;;;1.90;0.95;;;;;;;;;;6073117;23;20026;-96
2021/08/23 04:56:23;;;;;;;1.08;0.70;;;;;;;;;;6067880;23;20011;-95
2021/08/23 04:58:51;;;;;;;5.03;0.90;;;;;;;;;;6069095;23;20011;-95
2021/08/23 05:01:17;;;;;;;2.25;1.10;;;;;;;;;;6069910;23;20006;-94
2021/08/23 05:03:43;;;;;;;3.47;0.77;;;;;;;;;;6070099;23;19999;-96
2021/08/23 05:06:09;;;;;;;1.98;1.13;;;;;;;;;;6070066;23;20458;-96
2021/08/23 05:08:35;;;;;;;1.33;1.00;;;;;;;;;;6070275;23;20094;-96
2021/08/23 05:11:01;;;;;;;4.97;1.63;;;;;;;;;;6069677;23;20006;-95
2021/08/23 05:13:27;;;;;;;2.83;0.95;;;;;;;;;;6069554;23;20014;-96
2021/08/23 05:15:53;;;;;;;3.75;1.08;;;;;;;;;;6068443;23;20545;-95
2021/08/23 05:18:19;;;;;;;1.20;1.02;;;;;;;;;;6067855;23;20007;-95
2021/08/23 05:20:45;;;;;;;3.92;1.38;;;;;;;;;;6067874;23;20002;-96
2021/08/23 05:23:11;;;;;;;2.67;1.30;;;;;;;;;;6068192;23;20014;-96
2021/08/23 05:25:37;;;;;;;2.13;1.63;;;;;;;;;;6067656;23;20011;-94
2021/08/23 05:28:04;;;;;;;1.88;1.23;;;;;;;;;;6067829;23;20824;-96
2021/08/23 05:30:30;;;;;;;2.28;1.17;;;;;;;;;;6068583;23;20018;-96
2021/08/23 05:32:56;;;;;;;3.65;1.23;;;;;;;;;;6070015;23;20078;-96
2021/08/23 05:35:22;;;;;;;5.15;1.60;;;;;;;;;;6047319;23;20011;-96
2021/08/23 05:37:52;;;;;;;1.67;0.93;;;;;;;;;;6070999;23;20032;-96
2021/08/23 05:40:22;;;;;;;1.88;0.90;;;;;;;;;;6067538;23;20089;-95
2021/08/23 05:42:48;;;;;;;2.58;1.23;;;;;;;;;;6070970;23;20006;-96
2021/08/23 05:45:14;;;;;;;2.33;1.20;;;;;;;;;;6072001;23;20038;-94
2021/08/23 05:47:40;;;;;;;7.45;2.30;;;;;;;;;;6067855;23;19999;-84
2021/08/23 05:50:07;;;;;;;1.75;1.30;;;;;;;;;;6059858;23;20015;-83
2021/08/23 05:52:33;;;;;;;6.80;1.42;;;;;;;;;;6063160;23;20469;-83
2021/08/23 05:54:59;;;;;;;1.55;1.13;;;;;;;;;;6063662;23;20042;-83
2021/08/23 05:57:27;;;;;;;1.83;1.05;;;;;;;;;;6060845;23;20355;-84
2021/08/23 05:59:53;;;;;;;1.75;1.00;;;;;;;;;;6063351;23;20007;-83
2021/08/23 06:02:19;;;;;;;1.42;0.88;;;;;;;;;;6063376;23;20038;-83
2021/08/23 06:04:45;;;;;;;2.03;0.77;;;;;;;;;;6061548;23;20013;-83
2021/08/23 06:07:11;;;;;;;2.45;1.15;;;;;;;;;;6062948;23;20010;-83
2021/08/23 06:09:37;;;;;;;4.50;1.13;;;;;;;;;;6062100;23;20098;-83
2021/08/23 06:12:03;;;;;;;2.58;1.20;;;;;;;;;;6060166;23;20030;-82
2021/08/23 06:14:29;;;;;;;2.10;1.30;;;;;;;;;;6063396;23;20014;-83
2021/08/23 06:16:56;;;;;;;4.10;1.50;;;;;;;;;;6061787;23;20239;-84
2021/08/23 06:19:22;;;;;;;2.05;1.17;;;;;;;;;;6061454;23;20651;-84
2021/08/23 06:21:48;;;;;;;5.45;1.40;;;;;;;;;;6062622;23;20002;-84
2021/08/23 06:24:13;;;;;;;2.65;1.27;;;;;;;;;;6063264;23;20413;-83
2021/08/23 06:26:39;;;;;;;2.53;1.23;;;;;;;;;;6063440;23;20010;-84
2021/08/23 06:29:07;;;;;;;11.60;1.40;;;;;;;;;;6061169;23;20034;-84
2021/08/23 06:31:33;;;;;;;2.58;1.05;;;;;;;;;;6063071;23;20018;-84
2021/08/23 06:34:00;;;;;;;6.68;1.00;;;;;;;;;;6061383;23;20003;-84
2021/08/23 06:36:26;;;;;;;4.82;0.93;;;;;;;;;;6063411;23;20074;-83
2021/08/23 06:38:52;;;;;;;4.35;1.05;;;;;;;;;;6062633;23;20797;-83
2021/08/23 06:41:18;;;;;;;8.98;1.20;;;;;;;;;;6063011;23;20011;-83
2021/08/23 06:43:45;;;;;;;2.13;1.05;;;;;;;;;;6063405;23;20007;-84
2021/08/23 06:46:11;;;;;;;6.15;1.52;;;;;;;;;;6061625;23;20007;-83
2021/08/23 06:48:37;;;;;;;4.88;0.90;;;;;;;;;;6062383;23;20010;-82
2021/08/23 06:51:03;;;;;;;3.47;1.13;;;;;;;;;;6062828;23;20011;-81
2021/08/23 06:53:29;;;;;;;3.05;1.50;;;;;;;;;;6062745;23;20350;-82
2021/08/23 06:55:55;;;;;;;1.85;1.05;;;;;;;;;;6070577;23;20026;-81
2021/08/23 06:58:21;;;;;;;1.15;0.95;;;;;;;;;;6065862;23;20006;-81
2021/08/23 07:00:47;;;;;;;2.45;1.60;;;;;;;;;;6091252;23;20077;-80
2021/08/23 07:03:13;;;;;;;3.15;0.80;;;;;;;;;;6087506;23;19998;-81
2021/08/23 07:05:39;;;;;;;1.75;1.10;;;;;;;;;;6090868;23;20010;-82
2021/08/23 07:08:05;;;;;;;0.95;0.85;;;;;;;;;;6090950;23;20002;-82
2021/08/23 07:10:32;;;;;;;2.15;1.08;;;;;;;;;;6090568;23;20013;-81
2021/08/23 07:12:58;;;;;;;1.13;0.77;;;;;;;;;;6091613;23;20085;-82
2021/08/23 07:15:24;;;;;;;0.75;0.40;;;;;;;;;;6091055;23;20088;-82
2021/08/23 07:17:50;;;;;;;2.03;0.70;;;;;;;;;;6091053;23;20009;-81
2021/08/23 07:20:16;;;;;;;1.42;0.57;;;;;;;;;;6091493;23;20012;-81
2021/08/23 07:22:42;;;;;;;0.47;0.20;;;;;;;;;;6090212;23;20034;-81
2021/08/23 07:25:08;;;;;;;1.60;0.80;;;;;;;;;;6065545;23;20003;-82
2021/08/23 07:27:35;;;;;;;0.85;0.47;;;;;;;;;;6091266;23;20006;-81
2021/08/23 07:30:01;;;;;;;0.88;0.40;;;;;;;;;;6092839;23;20018;-82
2021/08/23 07:32:27;;;;;;;5.00;0.40;;;;;;;;;;6092790;23;20037;-82
2021/08/23 07:34:53;;;;;;;1.77;0.25;;;;;;;;;;6093143;23;20010;-80
2021/08/23 07:37:19;;;;;;;1.15;0.68;;;;;;;;;;6093228;23;20446;-82
2021/08/23 07:39:45;;;;;;;1.58;0.57;;;;;;;;;;6093386;23;20089;-82
2021/08/23 07:42:12;;;;;;;2.72;0.43;;;;;;;;;;6092063;23;20026;-81
2021/08/23 07:44:38;;;;;;;0.38;0.20;;;;;;;;;;6092354;23;20013;-81
2021/08/23 07:47:05;;;;;;;1.38;0.30;;;;;;;;;;6092479;23;20002;-82
2021/08/23 07:49:31;;;;;;;0.85;0.57;;;;;;;;;;6091599;23;20034;-82
2021/08/23 07:51:57;;;;;;;1.20;0.23;;;;;;;;;;6091408;23;20081;-81
2021/08/23 07:54:23;;;;;;;1.53;0.30;;;;;;;;;;6090606;23;20032;-81
2021/08/23 07:56:49;;;;;;;0.60;0.40;;;;;;;;;;6091213;23;20022;-81
2021/08/23 07:59:15;;;;;;;0.93;0.23;;;;;;;;;;6091829;23;20025;-80
2021/08/23 08:01:41;;;;;;;2.63;0.40;;;;;;;;;;6091032;23;20013;-81
2021/08/23 08:04:07;;;;;;;3.90;0.70;;;;;;;;;;6091095;23;20023;-81
2021/08/23 08:06:33;;;;;;;0.90;0.25;;;;;;;;;;6091076;23;20587;-82
2021/08/23 08:08:59;;;;;;;0.63;0.40;;;;;;;;;;6091257;23;20014;-82
2021/08/23 08:11:25;;;;;;;1.03;0.70;;;;;;;;;;6090527;23;20239;-81
2021/08/23 08:13:51;;;;;;;1.48;0.52;;;;;;;;;;6091994;23;20013;-82
2021/08/23 08:16:18;;;;;;;4.35;0.47;;;36.10;27.30;;;;;;6092290;23;20010;-81
2021/08/23 08:18:44;;;;;;;1.08;0.80;;;;;;;;;;6091581;23;20404;-80
2021/08/23 08:21:10;;;;;;;0.65;0.28;;;;;;;;;;6091595;23;20006;-80
2021/08/23 08:23:36;;;;;;;1.95;0.20;;;;;;;;;;6091209;23;20006;-81
2021/08/23 08:26:02;;;;;;;0.70;0.40;;;;;;;;;;6066306;23;20049;-80
2021/08/23 08:28:28;;;;;;;2.42;0.20;;;;;;;;;;6092397;23;20435;-81
2021/08/23 08:30:54;;;;;;;1.98;0.38;;;;;;;;;;6092509;23;20474;-81
2021/08/23 08:33:20;;;;;;;1.25;0.43;;;;;;;;;;6092599;23;20014;-81
2021/08/23 08:35:46;;;;;;;1.23;0.40;;;;;;;;;;6066400;23;20025;-81
2021/08/23 08:38:12;;;;;;;2.13;0.47;;;;;;;;;;6092345;23;20226;-83
2021/08/23 08:40:38;;;;;;;0.98;0.28;;;;;;;;;;6066846;23;20318;-83
2021/08/23 08:43:04;;;;;;;4.15;2.38;;;;;;;;;;6091944;23;20006;-82
2021/08/23 08:45:30;;;;;;;2.97;0.47;;;;;;;;;;6091894;23;20029;-82
2021/08/23 08:48:02;;;;;;;2.45;0.80;;;36.10;26.80;;;;;;6066618;23;20007;-82
2021/08/23 08:50:29;;;;;;;0.82;0.60;;;;;;;;;;6092389;23;20029;-83
2021/08/23 08:52:55;;;;;;;1.08;0.20;;;;;;;;;;6092770;23;20428;-84
2021/08/23 08:55:21;;;;;;;0.95;0.38;;;;;;;;;;6091820;23;20006;-83
2021/08/23 08:57:47;;;;;;;1.40;0.52;;;;;;;;;;6093088;23;20383;-83
2021/08/23 09:00:14;;;;;;;1.13;0.43;;;;;;;;;;6092619;23;20093;-82
2021/08/23 09:02:40;;;;;;;2.08;0.85;;;;;;;;;;6091401;23;20398;-82
2021/08/23 09:05:18;;;;;;;6.22;0.65;;;;;;;;;;6092004;23;20066;-82
2021/08/23 09:07:48;;;;;;;1.60;0.63;;;;;;;;;;6066581;23;20007;-83
2021/08/23 09:10:18;;;;;;;1.58;0.38;;;;;;;;;;6091621;23;20018;-82
2021/08/23 09:12:44;;;;;;;0.77;0.43;;;;;;;;;;6092275;23;20002;-82
2021/08/23 09:15:10;;;;;;;1.05;0.32;;;;;;;;;;6092071;23;20009;-82
2021/08/23 09:17:36;;;;;;;1.65;0.38;;;;;;;;;;6092047;23;20003;-82
2021/08/23 09:20:08;;;;;;;2.20;0.45;;;33.10;31.40;;;;;;6066242;23;20031;-81
2021/08/23 09:22:34;;;;;;;0.45;0.30;;;33.00;47.60;;;;;;6091709;23;20006;-82
2021/08/23 09:25:10;;;;;;;2.17;1.33;;;33.20;29.40;;;;;;6091529;23;20005;-82
2021/08/23 09:27:37;;;;;;;6.97;0.40;;;;;;;;;;6092051;23;20002;-83
2021/08/23 09:30:03;;;;;;;1.40;0.38;;;;;;;;;;6091651;23;20129;-82
2021/08/23 09:32:30;;;;;;;0.95;0.30;;;;;;;;;;6092176;23;20007;-81
2021/08/23 09:34:57;;;;;;;0.43;0.20;;;32.80;46.70;;;;;;6091626;23;20006;-83
2021/08/23 09:37:24;;;;;;;;;;;33.10;30.80;;;;;;6092041;23;20037;-82
2021/08/23 09:39:50;;;;;;;2.60;0.50;;;;;;;;;;6091957;23;19905;-83
2021/08/23 09:42:21;;;;;;;2.53;0.38;;;33.50;28.20;;;;;;6091810;23;20007;-83
2021/08/23 09:44:48;;;;;;;0.90;0.30;;;;;;;;;;6091947;23;20067;-82
2021/08/23 09:47:14;;;;;;;1.35;0.10;;;;;;;;;;6066267;23;20358;-84
2021/08/23 09:49:40;;;;;;;0.85;0.20;;;;;;;;;;6091376;23;20010;-83
2021/08/23 09:52:07;;;;;;;1.42;0.28;;;29.80;28.00;;;;;;6091744;23;20006;-81
2021/08/23 09:54:33;;;;;;;1.90;0.20;;;;;;;;;;6091682;23;20040;-82
2021/08/23 09:56:59;;;;;;;2.45;1.33;;;;;;;;;;6092044;23;20097;-82
2021/08/23 09:59:27;;;;;;;4.15;0.22;;;32.50;30.00;;;;;;6065625;23;20006;-83
2021/08/23 10:01:55;;;;;;;1.23;0.17;;;32.70;31.40;;;;;;6065984;23;20075;-83
2021/08/23 10:04:21;;;;;;;0.28;0.10;;;;;;;;;;6092511;23;20006;-84
2021/08/23 10:06:49;;;;;;;10.32;0.50;;;32.50;30.00;;;;;;6092466;23;20003;-82
2021/08/23 10:09:26;;;;;;;0.43;0.25;;;32.00;30.00;;;;;;6093404;23;20049;-83
2021/08/23 10:11:55;;;;;;;0.88;0.30;;;31.10;31.40;;;;;;6090874;23;20525;-83
2021/08/23 10:14:22;;;;;;;1.80;0.20;;;;;;;;;;6091218;23;20080;-82
2021/08/23 10:16:48;;;;;;;1.38;0.25;;;;;;;;;;6066021;23;20010;-83
2021/08/23 10:19:14;;;;;;;0.80;0.22;;;;;;;;;;6090797;23;20102;-83
2021/08/23 10:21:43;;;;;;;1.73;0.50;;;29.70;32.90;;;;;;6090518;23;20006;-83
2021/08/23 10:24:10;;;;;;;0.98;0.32;;;29.40;33.10;;;;;;6090747;23;20010;-83
2021/08/23 10:26:41;;;;;;;2.00;1.00;;;;;;;;;;6064834;23;20002;-84
2021/08/23 10:29:08;;;;;;;0.55;0.22;;;;;;;;;;6090208;23;20014;-83
2021/08/23 10:31:35;;;;;;;0.68;0.30;;;30.20;32.80;;;;;;6090118;23;20017;-84
2021/08/23 10:34:12;;;;;;;1.23;0.32;;;30.30;31.90;;;;;;6090014;23;20010;-83
2021/08/23 10:36:38;;;;;;;1.88;0.30;;;;;;;;;;6090193;23;20035;-83
2021/08/23 10:39:04;;;;;;;0.33;0.20;;;;;;;;;;6090627;23;20002;-83
2021/08/23 10:41:30;;;;;;;1.00;0.30;;;;;;;;;;6090471;23;20230;-83
2021/08/23 10:44:04;;;;;;;1.50;0.20;;;30.30;32.70;;;;;;6064540;23;20089;-83
2021/08/23 10:46:38;;;;;;;1.35;0.20;;;30.60;52.40;;;;;;6065514;23;20006;-82
2021/08/23 10:49:12;;;;;;;0.65;0.22;;;30.30;34.80;;;;;;6064001;23;20093;-82
2021/08/23 10:51:55;;;;;;;4.55;0.30;;;29.70;35.00;;;;;;6090650;23;20006;-82
2021/08/23 10:54:29;;;;;;;0.90;0.35;;;;;;;;;;6091275;23;20017;-82
2021/08/23 10:57:00;;;;;;;2.30;0.40;;;29.10;41.20;;;;;;6065721;23;20492;-82
2021/08/23 10:59:37;;;;;;;0.90;0.30;;;28.80;36.90;;;;;;6090645;23;20119;-82
2021/08/23 11:02:03;;;;;;;5.55;0.40;;;;;;;;;;6091832;23;20013;-83
2021/08/23 11:04:38;;;;;;;0.93;0.30;;;28.40;43.90;;;;;;6065454;23;20018;-83
2021/08/23 11:07:06;;;;;;;0.90;0.40;;;28.20;37.60;;;;;;6091188;23;20037;-82
2021/08/23 11:09:34;;;;;;;1.20;0.30;;;;;;;;;;6091400;23;20044;-83
2021/08/23 11:12:11;;;;;;;0.70;0.30;;;27.90;37.90;;;;;;6065477;23;20037;-82
2021/08/23 11:14:47;;;;;;;0.60;0.28;;;28.90;41.10;;;;;;6065772;23;20474;-82
2021/08/23 11:17:33;;;;;;;0.50;0.30;;;27.70;39.30;;;;;;6066266;23;20086;-83
2021/08/23 11:20:08;;;;;;;1.77;0.37;;;27.90;39.10;;;;;;6091894;23;20010;-82
2021/08/23 11:22:34;;;;;;;2.22;0.50;;;;;;;;;;6064907;23;20034;-82
2021/08/23 11:25:00;;;;;;;1.73;0.52;;;;;;;;;;6065750;23;20062;-84
2021/08/23 11:27:26;;;;;;;0.75;0.40;;;;;;;;;;6065269;23;20272;-84
2021/08/23 11:29:55;;;;;;;1.13;0.43;;;27.80;36.90;;;;;;6090989;23;20046;-85
2021/08/23 11:32:25;;;;;;;0.52;0.20;;;;;;;;;;6091366;23;20460;-83
2021/08/23 11:34:52;;;;;;;0.60;0.35;;;27.50;41.10;;;;;;6091801;23;20387;-85
2021/08/23 11:37:22;;;;;;;0.73;0.30;;;27.60;39.60;;;;;;6091520;23;20508;-85
2021/08/23 11:39:49;;;;;;;0.98;0.60;;;;;;;;;;6092439;23;20036;-84
2021/08/23 11:42:15;;;;;;;3.30;0.63;;;;;;;;;;6091677;23;20007;-85
2021/08/23 11:44:48;;;;;;;0.82;0.47;;;27.20;39.50;;;;;;6064901;23;20010;-84
2021/08/23 11:47:14;;;;;;;1.02;0.30;;;;;;;;;;6092125;23;20014;-83
2021/08/23 11:49:40;;;;;;;0.60;0.40;;;;;;;;;;6090834;23;20015;-84
2021/08/23 11:52:19;;;;;;;0.90;0.70;;;27.20;39.00;;;;;;6091012;23;20671;-83
2021/08/23 11:54:47;;;;;;;0.65;0.52;;;27.30;39.70;;;;;;6065047;23;20063;-83
2021/08/23 11:57:13;;;;;;;0.73;0.50;;;;;;;;;;6091294;23;20014;-83
2021/08/23 11:59:39;;;;;;;0.40;0.30;;;;;;;;;;6091169;23;20012;-84
2021/08/23 12:02:12;;;;;;;0.80;0.30;;;26.90;40.70;;;;;;6090877;23;20341;-84
2021/08/23 12:04:38;;;;;;;2.63;0.85;;;;;;;;;;6091068;23;20007;-82
2021/08/23 12:07:04;;;;;;;2.17;0.50;;;;;;;;;;6091012;23;20007;-82
2021/08/23 12:09:30;;;;;;;1.42;0.77;;;;;;;;;;6091392;23;20021;-83
2021/08/23 12:11:56;;;;;;;1.63;0.70;;;;;;;;;;6090906;23;20414;-83
2021/08/23 12:14:28;;;;;;;6.25;0.55;;;;;;;;;;6090918;23;20331;-82
2021/08/23 12:16:54;;;;;;;3.72;0.75;;;;;;;;;;6092410;23;20002;-83
2021/08/23 12:19:21;;;;;;;0.50;0.40;;;;;;;;;;6092594;23;20013;-84
2021/08/23 12:21:50;;;;;;;0.35;0.20;;;26.80;39.90;;;;;;6092676;23;20465;-83
2021/08/23 12:24:16;;;;;;;1.67;0.60;;;;;;;;;;6067599;23;20007;-83
2021/08/23 12:26:48;;;;;;;1.25;0.50;;;26.80;42.30;;;;;;6067167;23;20094;-83
2021/08/23 12:29:16;;;;;;;0.60;0.30;;;;;;;;;;6092751;23;20017;-83
2021/08/23 12:31:57;;;;;;;0.60;0.30;;;26.70;38.90;;;;;;6093121;23;20014;-83
2021/08/23 12:34:25;;;;;;;0.65;0.50;;;26.50;40.00;;;;;;6092983;23;20072;-83
2021/08/23 12:36:52;;;;;;;1.20;0.30;;;26.40;39.50;;;;;;6092392;23;20083;-83
2021/08/23 12:39:19;;;;;;;1.33;0.68;;;26.50;40.80;;;;;;6093063;23;20009;-83
2021/08/23 12:41:46;;;;;;;1.95;0.20;;;;;;;;;;6066904;23;20013;-83
2021/08/23 12:44:12;;;;;;;0.22;0.22;;;;;;;;;;6092477;23;20017;-83
2021/08/23 12:46:39;;;;;;;0.38;0.20;;;;;;;;;;6092877;23;20086;-83
2021/08/23 12:49:05;;;;;;;2.47;0.50;;;;;;;;;;6092787;23;20011;-84
2021/08/23 12:51:31;;;;;;;0.90;0.40;;;;;;;;;;6092391;23;20086;-84
2021/08/23 12:53:57;;;;;;;2.00;0.35;;;;;;;;;;6092665;23;20587;-84
2021/08/23 12:56:23;;;;;;;0.55;0.25;;;;;;;;;;6092037;23;20088;-84
2021/08/23 12:58:50;;;;;;;0.25;0.25;;;;;;;;;;6092823;23;20006;-85
2021/08/23 13:01:16;;;;;;;1.77;0.60;;;;;;;;;;6092611;23;20010;-85
2021/08/23 13:03:43;;;;;;;1.58;1.02;;;26.50;41.00;;;;;;6092570;23;20436;-85
2021/08/23 13:06:09;;;;;;;0.57;0.35;;;;;;;;;;6092518;23;20450;-84
2021/08/23 13:08:35;;;;;;;1.25;0.50;;;;;;;;;;6066434;23;20063;-82
2021/08/23 13:11:01;;;;;;;0.85;0.32;;;;;;;;;;6094226;23;20046;-83
2021/08/23 13:13:27;;;;;;;1.02;0.50;;;;;;;;;;6066271;23;20489;-82
2021/08/23 13:15:53;;;;;;;0.65;0.40;;;;;;;;;;6092467;23;20350;-84
2021/08/23 13:18:19;;;;;;;1.52;0.52;;;;;;;;;;6092115;23;20006;-84
2021/08/23 13:20:45;;;;;;;0.90;0.30;;;;;;;;;;6092304;23;20010;-84
2021/08/23 13:23:13;;;;;;;3.97;0.83;;;;;;;;;;6092728;23;20334;-84
2021/08/23 13:25:40;;;;;;;4.57;0.40;;;25.80;41.40;;;;;;6092048;23;20014;-83
2021/08/23 13:28:07;;;;;;;1.25;0.90;;;;;;;;;;6066539;23;20054;-84
2021/08/23 13:30:33;;;;;;;1.75;0.70;;;;;;;;;;6092497;23;20030;-83
2021/08/23 13:33:03;;;;;;;1.13;0.80;;;;;;;;;;6091860;23;20013;-87
2021/08/23 13:35:29;;;;;;;2.80;0.77;;;;;;;;;;6066745;23;20007;-83
2021/08/23 13:37:55;;;;;;;1.20;0.28;;;;;;;;;;6092484;23;20013;-82
2021/08/23 13:40:21;;;;;;;2.55;0.40;;;;;;;;;;6066116;23;20006;-84
2021/08/23 13:42:47;;;;;;;1.70;0.57;;;;;;;;;;6066174;23;20021;-82
2021/08/23 13:45:13;;;;;;;2.70;1.00;;;;;;;;;;6092200;23;20488;-82
2021/08/23 13:47:39;;;;;;;1.73;0.60;;;;;;;;;;6066296;23;20058;-82
2021/08/23 13:50:05;;;;;;;1.55;0.50;;;;;;;;;;6091794;23;20018;-84
2021/08/23 13:52:31;;;;;;;5.10;0.88;;;;;;;;;;6092003;23;20002;-82
2021/08/23 13:54:57;;;;;;;1.80;1.00;;;;;;;;;;6066115;23;20017;-83
2021/08/23 13:57:24;;;;;;;0.60;0.60;;;25.70;43.70;;;;;;6091565;23;20445;-82
2021/08/23 13:59:50;;;;;;;1.63;0.50;;;;;;;;;;6092510;23;20081;-84
2021/08/23 14:02:16;;;;;;;1.65;0.82;;;;;;;;;;6066582;23;20014;-83
2021/08/23 14:04:42;;;;;;;4.13;1.13;;;;;;;;;;6090487;23;20014;-83
2021/08/23 14:07:08;;;;;;;1.27;0.98;;;;;;;;;;6092456;23;20061;-82
2021/08/23 14:09:34;;;;;;;2.97;0.68;;;;;;;;;;6091399;23;20014;-84
2021/08/23 14:12:00;;;;;;;1.20;0.50;;;;;;;;;;6091958;23;20041;-83
2021/08/23 14:14:26;;;;;;;2.78;0.95;;;;;;;;;;6092011;23;20478;-84
2021/08/23 14:16:52;;;;;;;1.83;0.60;;;;;;;;;;6066397;23;20081;-82
2021/08/23 14:19:18;;;;;;;2.15;1.10;;;;;;;;;;6091653;23;20457;-83
2021/08/23 14:21:44;;;;;;;0.77;0.50;;;;;;;;;;6092008;23;20006;-83